createdAt,value
2023-03-31T00:00:35.368Z,517.00
2023-03-31T00:01:35.461Z,515.00
2023-03-31T00:02:35.702Z,516.00
2023-03-31T00:03:35.880Z,516.00
2023-03-31T00:04:35.946Z,514.00
2023-03-31T00:05:36.027Z,511.00
2023-03-31T00:06:36.220Z,510.00
2023-03-31T00:07:36.353Z,507.00
2023-03-31T00:08:36.501Z,508.00
2023-03-31T00:09:36.579Z,509.00
2023-03-31T00:10:36.648Z,508.00
2023-03-31T00:11:36.705Z,508.00
2023-03-31T00:12:36.720Z,510.00
2023-03-31T00:13:36.965Z,513.00
2023-03-31T00:14:36.838Z,512.00
2023-03-31T00:15:36.882Z,513.00
2023-03-31T00:16:37.075Z,508.00
2023-03-31T00:17:37.031Z,507.00
2023-03-31T00:18:37.043Z,506.00
2023-03-31T00:19:37.114Z,506.00
2023-03-31T00:20:37.153Z,506.00
2023-03-31T00:21:37.208Z,506.00
2023-03-31T00:22:37.259Z,508.00
2023-03-31T00:23:37.301Z,509.00
2023-03-31T00:24:37.363Z,511.00
2023-03-31T00:25:37.380Z,512.00
2023-03-31T00:26:37.442Z,509.00
2023-03-31T00:27:37.496Z,509.00
2023-03-31T00:28:37.533Z,510.00
2023-03-31T00:29:37.601Z,507.00
2023-03-31T00:30:37.641Z,508.00
2023-03-31T00:31:37.726Z,509.00
2023-03-31T00:32:37.760Z,509.00
2023-03-31T00:33:37.805Z,508.00
2023-03-31T00:34:37.855Z,509.00
2023-03-31T00:35:37.937Z,512.00
2023-03-31T00:36:37.953Z,511.00
2023-03-31T00:37:37.995Z,513.00
2023-03-31T00:38:38.074Z,513.00
2023-03-31T00:39:38.095Z,515.00
2023-03-31T00:40:38.142Z,513.00
2023-03-31T00:41:38.185Z,511.00
2023-03-31T00:42:38.308Z,514.00
2023-03-31T00:43:38.288Z,516.00
2023-03-31T00:44:38.346Z,516.00
2023-03-31T00:45:38.430Z,516.00
2023-03-31T00:46:38.415Z,517.00
2023-03-31T00:47:38.481Z,514.00
2023-03-31T00:48:38.531Z,515.00
2023-03-31T00:49:38.550Z,514.00
2023-03-31T00:50:38.594Z,512.00
2023-03-31T00:51:38.635Z,512.00
2023-03-31T00:52:38.729Z,510.00
2023-03-31T00:53:38.752Z,508.00
2023-03-31T00:54:38.796Z,507.00
2023-03-31T00:55:38.847Z,506.00
2023-03-31T00:56:38.890Z,508.00
2023-03-31T00:57:38.942Z,508.00
2023-03-31T00:58:38.982Z,506.00
2023-03-31T00:59:39.054Z,506.00
2023-03-31T01:00:39.061Z,504.00
2023-03-31T01:01:39.244Z,503.00
2023-03-31T01:02:39.191Z,504.00
2023-03-31T01:03:39.282Z,506.00
2023-03-31T01:04:39.289Z,503.00
2023-03-31T01:05:39.304Z,503.00
2023-03-31T01:06:39.405Z,503.00
2023-03-31T01:07:39.401Z,507.00
2023-03-31T01:08:39.450Z,508.00
2023-03-31T01:09:39.495Z,510.00
2023-03-31T01:10:39.542Z,513.00
2023-03-31T01:11:39.552Z,511.00
2023-03-31T01:12:39.606Z,511.00
2023-03-31T01:13:39.664Z,509.00
2023-03-31T01:14:39.714Z,506.00
2023-03-31T01:15:39.806Z,506.00
2023-03-31T01:16:39.907Z,507.00
2023-03-31T01:17:39.967Z,506.00
2023-03-31T01:18:39.962Z,505.00
2023-03-31T01:19:39.936Z,507.00
2023-03-31T01:20:39.996Z,506.00
2023-03-31T01:21:40.032Z,506.00
2023-03-31T01:22:40.090Z,506.00
2023-03-31T01:23:40.130Z,507.00
2023-03-31T01:24:40.198Z,508.00
2023-03-31T01:25:40.240Z,507.00
2023-03-31T01:26:40.272Z,509.00
2023-03-31T01:27:40.326Z,510.00
2023-03-31T01:28:40.368Z,512.00
2023-03-31T01:29:40.415Z,509.00
2023-03-31T01:30:40.452Z,508.00
2023-03-31T01:31:40.582Z,507.00
2023-03-31T01:32:40.622Z,505.00
2023-03-31T01:33:40.615Z,506.00
2023-03-31T01:34:40.612Z,506.00
2023-03-31T01:35:40.719Z,505.00
2023-03-31T01:36:40.690Z,506.00
2023-03-31T01:37:40.722Z,507.00
2023-03-31T01:38:40.791Z,507.00
2023-03-31T01:39:40.838Z,505.00
2023-03-31T01:40:40.911Z,504.00
2023-03-31T01:41:40.975Z,508.00
2023-03-31T01:42:41.003Z,509.00
2023-03-31T01:43:41.063Z,508.00
2023-03-31T01:44:41.125Z,507.00
2023-03-31T01:45:41.152Z,506.00
2023-03-31T01:46:41.230Z,506.00
2023-03-31T01:47:41.258Z,505.00
2023-03-31T01:48:41.325Z,505.00
2023-03-31T01:49:41.376Z,505.00
2023-03-31T01:50:41.429Z,506.00
2023-03-31T01:51:41.673Z,507.00
2023-03-31T01:52:41.562Z,506.00
2023-03-31T01:53:41.608Z,506.00
2023-03-31T01:54:41.655Z,506.00
2023-03-31T01:55:41.697Z,505.00
2023-03-31T01:56:41.796Z,504.00
2023-03-31T01:57:41.789Z,504.00
2023-03-31T01:58:41.843Z,504.00
2023-03-31T01:59:41.882Z,504.00
2023-03-31T02:00:41.901Z,504.00
2023-03-31T02:01:41.974Z,504.00
2023-03-31T02:02:42.062Z,503.00
2023-03-31T02:03:42.141Z,505.00
2023-03-31T02:04:42.107Z,504.00
2023-03-31T02:05:42.152Z,503.00
2023-03-31T02:06:42.234Z,501.00
2023-03-31T02:07:42.323Z,499.00
2023-03-31T02:08:42.320Z,499.00
2023-03-31T02:09:42.360Z,499.00
2023-03-31T02:10:42.424Z,499.00
2023-03-31T02:11:42.446Z,502.00
2023-03-31T02:12:42.527Z,503.00
2023-03-31T02:13:42.583Z,503.00
2023-03-31T02:14:42.590Z,504.00
2023-03-31T02:15:42.648Z,505.00
2023-03-31T02:16:42.721Z,505.00
2023-03-31T02:17:42.770Z,505.00
2023-03-31T02:18:42.787Z,505.00
2023-03-31T02:19:42.846Z,503.00
2023-03-31T02:20:42.934Z,501.00
2023-03-31T02:21:42.987Z,502.00
2023-03-31T02:22:43.034Z,504.00
2023-03-31T02:23:43.087Z,503.00
2023-03-31T02:24:43.076Z,503.00
2023-03-31T02:25:43.144Z,501.00
2023-03-31T02:26:43.310Z,501.00
2023-03-31T02:27:43.361Z,501.00
2023-03-31T02:28:43.517Z,501.00
2023-03-31T02:29:43.476Z,500.00
2023-03-31T02:30:43.540Z,502.00
2023-03-31T02:31:43.667Z,503.00
2023-03-31T02:32:43.676Z,502.00
2023-03-31T02:33:43.735Z,500.00
2023-03-31T02:34:43.755Z,501.00
2023-03-31T02:35:43.850Z,501.00
2023-03-31T02:36:43.810Z,500.00
2023-03-31T02:37:43.879Z,501.00
2023-03-31T02:38:43.960Z,500.00
2023-03-31T02:39:44.021Z,502.00
2023-03-31T02:40:44.041Z,501.00
2023-03-31T02:41:44.102Z,502.00
2023-03-31T02:42:44.126Z,500.00
2023-03-31T02:43:44.121Z,498.00
2023-03-31T02:44:44.130Z,498.00
2023-03-31T02:45:44.223Z,500.00
2023-03-31T02:46:44.250Z,499.00
2023-03-31T02:47:44.334Z,500.00
2023-03-31T02:48:44.361Z,497.00
2023-03-31T02:49:44.394Z,496.00
2023-03-31T02:50:44.474Z,497.00
2023-03-31T02:51:44.533Z,501.00
2023-03-31T02:52:44.564Z,501.00
2023-03-31T02:53:44.644Z,502.00
2023-03-31T02:54:44.700Z,503.00
2023-03-31T02:55:44.763Z,504.00
2023-03-31T02:56:44.844Z,506.00
2023-03-31T02:57:44.869Z,507.00
2023-03-31T02:58:44.908Z,506.00
2023-03-31T02:59:44.958Z,504.00
2023-03-31T03:00:45.024Z,504.00
2023-03-31T03:01:45.126Z,503.00
2023-03-31T03:02:45.172Z,503.00
2023-03-31T03:03:45.194Z,501.00
2023-03-31T03:04:45.247Z,499.00
2023-03-31T03:05:45.280Z,498.00
2023-03-31T03:06:45.367Z,498.00
2023-03-31T03:07:45.398Z,496.00
2023-03-31T03:08:45.482Z,497.00
2023-03-31T03:09:45.528Z,499.00
2023-03-31T03:10:45.609Z,498.00
2023-03-31T03:11:45.675Z,499.00
2023-03-31T03:12:45.724Z,501.00
2023-03-31T03:13:45.779Z,502.00
2023-03-31T03:14:45.853Z,503.00
2023-03-31T03:15:45.872Z,507.00
2023-03-31T03:16:45.973Z,510.00
2023-03-31T03:17:46.078Z,513.00
2023-03-31T03:18:46.022Z,514.00
2023-03-31T03:19:46.036Z,515.00
2023-03-31T03:20:46.090Z,514.00
2023-03-31T03:21:46.148Z,513.00
2023-03-31T03:22:46.217Z,512.00
2023-03-31T03:23:46.271Z,511.00
2023-03-31T03:24:46.306Z,510.00
2023-03-31T03:25:46.297Z,510.00
2023-03-31T03:26:46.348Z,509.00
2023-03-31T03:27:46.421Z,508.00
2023-03-31T03:28:46.462Z,510.00
2023-03-31T03:29:46.537Z,509.00
2023-03-31T03:30:46.587Z,506.00
2023-03-31T03:31:46.646Z,504.00
2023-03-31T03:32:46.772Z,502.00
2023-03-31T03:33:46.776Z,501.00
2023-03-31T03:34:46.811Z,500.00
2023-03-31T03:35:46.947Z,501.00
2023-03-31T03:36:46.931Z,504.00
2023-03-31T03:37:46.992Z,507.00
2023-03-31T03:38:47.085Z,507.00
2023-03-31T03:39:47.112Z,504.00
2023-03-31T03:40:48.893Z,504.00
2023-03-31T03:41:47.149Z,505.00
2023-03-31T03:42:47.137Z,507.00
2023-03-31T03:43:47.141Z,508.00
2023-03-31T03:44:47.131Z,509.00
2023-03-31T03:45:47.118Z,510.00
2023-03-31T03:46:47.140Z,512.00
2023-03-31T03:47:47.132Z,512.00
2023-03-31T03:48:47.118Z,513.00
2023-03-31T03:49:47.105Z,510.00
2023-03-31T03:50:47.073Z,510.00
2023-03-31T03:51:47.108Z,507.00
2023-03-31T03:52:47.051Z,507.00
2023-03-31T03:53:47.066Z,507.00
2023-03-31T03:54:47.037Z,505.00
2023-03-31T03:55:47.026Z,504.00
2023-03-31T03:56:47.056Z,503.00
2023-03-31T03:57:47.024Z,503.00
2023-03-31T03:58:47.006Z,504.00
2023-03-31T03:59:47.013Z,506.00
2023-03-31T04:00:47.001Z,511.00
2023-03-31T04:01:47.008Z,510.00
2023-03-31T04:02:47.074Z,510.00
2023-03-31T04:03:46.985Z,508.00
2023-03-31T04:04:47.110Z,507.00
2023-03-31T04:05:46.965Z,507.00
2023-03-31T04:06:46.967Z,510.00
2023-03-31T04:07:46.964Z,512.00
2023-03-31T04:08:46.959Z,511.00
2023-03-31T04:09:46.925Z,510.00
2023-03-31T04:10:46.935Z,510.00
2023-03-31T04:11:46.924Z,510.00
2023-03-31T04:12:46.935Z,509.00
2023-03-31T04:13:46.915Z,507.00
2023-03-31T04:14:46.885Z,505.00
2023-03-31T04:15:46.956Z,507.00
2023-03-31T04:16:47.051Z,508.00
2023-03-31T04:17:46.878Z,507.00
2023-03-31T04:18:46.855Z,510.00
2023-03-31T04:19:46.858Z,516.00
2023-03-31T04:20:46.887Z,518.00
2023-03-31T04:21:46.966Z,520.00
2023-03-31T04:22:47.021Z,520.00
2023-03-31T04:23:47.152Z,520.00
2023-03-31T04:24:47.128Z,517.00
2023-03-31T04:25:47.188Z,516.00
2023-03-31T04:26:47.260Z,515.00
2023-03-31T04:27:47.325Z,515.00
2023-03-31T04:28:47.383Z,518.00
2023-03-31T04:29:47.452Z,520.00
2023-03-31T04:30:47.510Z,519.00
2023-03-31T04:31:47.588Z,519.00
2023-03-31T04:32:47.620Z,517.00
2023-03-31T04:33:47.619Z,515.00
2023-03-31T04:34:47.666Z,517.00
2023-03-31T04:35:47.749Z,516.00
2023-03-31T04:36:48.221Z,516.00
2023-03-31T04:37:47.851Z,518.00
2023-03-31T04:38:47.893Z,517.00
2023-03-31T04:39:47.966Z,516.00
2023-03-31T04:40:48.029Z,515.00
2023-03-31T04:41:48.077Z,518.00
2023-03-31T04:42:48.136Z,518.00
2023-03-31T04:43:48.183Z,517.00
2023-03-31T04:44:48.212Z,518.00
2023-03-31T04:45:48.296Z,521.00
2023-03-31T04:46:48.335Z,518.00
2023-03-31T04:47:48.464Z,519.00
2023-03-31T04:48:48.483Z,518.00
2023-03-31T04:49:48.466Z,519.00
2023-03-31T04:50:48.521Z,518.00
2023-03-31T04:51:48.635Z,516.00
2023-03-31T04:52:48.645Z,515.00
2023-03-31T04:53:48.669Z,517.00
2023-03-31T04:54:48.744Z,518.00
2023-03-31T04:55:48.825Z,518.00
2023-03-31T04:56:48.894Z,517.00
2023-03-31T04:57:48.949Z,517.00
2023-03-31T04:58:49.084Z,516.00
2023-03-31T04:59:49.123Z,517.00
2023-03-31T05:00:49.159Z,515.00
2023-03-31T05:01:49.212Z,515.00
2023-03-31T05:02:49.348Z,515.00
2023-03-31T05:03:49.301Z,516.00
2023-03-31T05:04:49.352Z,515.00
2023-03-31T05:05:49.414Z,513.00
2023-03-31T05:06:49.420Z,514.00
2023-03-31T05:07:49.493Z,514.00
2023-03-31T05:08:49.565Z,514.00
2023-03-31T05:09:49.602Z,515.00
2023-03-31T05:10:49.705Z,516.00
2023-03-31T05:11:49.739Z,513.00
2023-03-31T05:12:49.819Z,513.00
2023-03-31T05:13:49.829Z,513.00
2023-03-31T05:14:49.872Z,514.00
2023-03-31T05:15:49.937Z,515.00
2023-03-31T05:16:50.015Z,513.00
2023-03-31T05:17:49.974Z,515.00
2023-03-31T05:18:50.046Z,516.00
2023-03-31T05:19:50.046Z,517.00
2023-03-31T05:20:50.113Z,517.00
2023-03-31T05:21:50.175Z,517.00
2023-03-31T05:22:50.236Z,514.00
2023-03-31T05:23:50.293Z,516.00
2023-03-31T05:24:50.295Z,517.00
2023-03-31T05:25:50.341Z,607.00
2023-03-31T05:26:50.415Z,588.00
2023-03-31T05:27:50.462Z,682.00
2023-03-31T05:28:50.501Z,590.00
2023-03-31T05:29:50.511Z,606.00
2023-03-31T05:30:50.532Z,610.00
2023-03-31T05:31:50.592Z,654.00
2023-03-31T05:32:50.594Z,715.00
2023-03-31T05:33:50.649Z,722.00
2023-03-31T05:34:52.169Z,744.00
2023-03-31T05:35:50.784Z,815.00
2023-03-31T05:36:50.786Z,856.00
2023-03-31T05:37:50.807Z,841.00
2023-03-31T05:38:50.841Z,851.00
2023-03-31T05:39:50.917Z,865.00
2023-03-31T05:40:50.963Z,883.00
2023-03-31T05:41:51.020Z,951.00
2023-03-31T05:42:51.076Z,970.00
2023-03-31T05:43:51.030Z,974.00
2023-03-31T05:44:51.085Z,977.00
2023-03-31T05:45:51.184Z,983.00
2023-03-31T05:46:51.260Z,998.00
2023-03-31T05:47:51.239Z,1015.00
2023-03-31T05:48:51.180Z,1032.00
2023-03-31T05:49:51.239Z,1041.00
2023-03-31T05:50:51.239Z,1050.00
2023-03-31T05:51:51.260Z,1057.00
2023-03-31T05:52:51.606Z,1057.00
2023-03-31T05:53:51.335Z,1056.00
2023-03-31T05:54:51.358Z,1053.00
2023-03-31T05:55:51.414Z,1044.00
2023-03-31T05:56:51.468Z,1002.00
2023-03-31T05:57:51.452Z,706.00
2023-03-31T05:58:51.495Z,677.00
2023-03-31T05:59:51.550Z,693.00
2023-03-31T06:00:51.640Z,730.00
2023-03-31T06:01:51.762Z,730.00
2023-03-31T06:02:51.833Z,710.00
2023-03-31T06:03:51.924Z,685.00
2023-03-31T06:04:51.808Z,770.00
2023-03-31T06:05:51.862Z,769.00
2023-03-31T06:06:51.883Z,768.00
2023-03-31T06:07:51.952Z,779.00
2023-03-31T06:08:52.001Z,789.00
2023-03-31T06:09:52.603Z,795.00
2023-03-31T06:10:52.087Z,829.00
2023-03-31T06:11:52.191Z,871.00
2023-03-31T06:12:52.640Z,881.00
2023-03-31T06:13:52.611Z,895.00
2023-03-31T06:14:52.312Z,916.00
2023-03-31T06:15:52.350Z,932.00
2023-03-31T06:16:52.370Z,943.00
2023-03-31T06:17:52.441Z,940.00
2023-03-31T06:18:52.419Z,750.00
2023-03-31T06:19:52.447Z,768.00
2023-03-31T06:20:52.466Z,773.00
2023-03-31T06:21:52.555Z,761.00
2023-03-31T06:22:52.624Z,751.00
2023-03-31T06:23:52.668Z,742.00
2023-03-31T06:24:52.658Z,736.00
2023-03-31T06:25:52.721Z,787.00
2023-03-31T06:26:53.938Z,762.00
2023-03-31T06:27:52.870Z,750.00
2023-03-31T06:28:52.934Z,791.00
2023-03-31T06:29:52.994Z,774.00
2023-03-31T06:30:53.021Z,775.00
2023-03-31T06:31:53.114Z,787.00
2023-03-31T06:32:53.197Z,806.00
2023-03-31T06:33:53.648Z,814.00
2023-03-31T06:34:53.188Z,838.00
2023-03-31T06:35:53.217Z,848.00
2023-03-31T06:36:53.254Z,847.00
2023-03-31T06:37:53.315Z,847.00
2023-03-31T06:38:53.341Z,838.00
2023-03-31T06:39:53.433Z,829.00
2023-03-31T06:40:53.507Z,816.00
2023-03-31T06:41:53.576Z,797.00
2023-03-31T06:42:53.605Z,798.00
2023-03-31T06:43:53.659Z,850.00
2023-03-31T06:44:53.695Z,860.00
2023-03-31T06:45:54.053Z,858.00
2023-03-31T06:46:53.807Z,865.00
2023-03-31T06:47:53.902Z,876.00
2023-03-31T06:48:54.104Z,904.00
2023-03-31T06:49:53.958Z,927.00
2023-03-31T06:50:54.043Z,964.00
2023-03-31T06:51:54.061Z,1026.00
2023-03-31T06:52:54.102Z,1031.00
2023-03-31T06:53:54.624Z,1035.00
2023-03-31T06:54:54.183Z,1041.00
2023-03-31T06:55:54.186Z,1048.00
2023-03-31T06:56:54.393Z,1054.00
2023-03-31T06:57:54.221Z,1063.00
2023-03-31T06:58:54.249Z,1072.00
2023-03-31T06:59:54.239Z,1083.00
2023-03-31T07:00:54.321Z,1096.00
2023-03-31T07:01:54.355Z,1101.00
2023-03-31T07:02:54.398Z,1100.00
2023-03-31T07:03:54.731Z,1101.00
2023-03-31T07:04:54.277Z,1108.00
2023-03-31T07:05:54.281Z,1108.00
2023-03-31T07:06:54.264Z,1108.00
2023-03-31T07:07:54.309Z,1112.00
2023-03-31T07:08:54.663Z,1122.00
2023-03-31T07:09:56.285Z,1152.00
2023-03-31T07:10:54.503Z,1161.00
2023-03-31T07:11:56.543Z,1167.00
2023-03-31T07:12:54.609Z,1172.00
2023-03-31T07:13:54.654Z,1170.00
2023-03-31T07:14:54.707Z,1168.00
2023-03-31T07:15:54.787Z,1164.00
2023-03-31T07:16:54.798Z,1161.00
2023-03-31T07:17:54.863Z,1158.00
2023-03-31T07:18:54.919Z,1158.00
2023-03-31T07:19:54.902Z,1158.00
2023-03-31T07:20:54.986Z,1157.00
2023-03-31T07:21:54.994Z,1157.00
2023-03-31T07:22:55.021Z,1156.00
2023-03-31T07:23:55.092Z,1156.00
2023-03-31T07:24:55.122Z,1159.00
2023-03-31T07:25:55.151Z,1163.00
2023-03-31T07:26:55.187Z,1270.00
2023-03-31T07:27:55.276Z,1202.00
2023-03-31T07:28:55.297Z,1215.00
2023-03-31T07:29:55.624Z,1208.00
2023-03-31T07:30:55.433Z,1213.00
2023-03-31T07:31:55.641Z,1209.00
2023-03-31T07:32:55.636Z,1075.00
2023-03-31T07:33:55.617Z,1097.00
2023-03-31T07:34:55.614Z,1027.00
2023-03-31T07:36:10.015Z,944.00
2023-03-31T07:36:56.682Z,931.00
2023-03-31T07:37:55.650Z,919.00
2023-03-31T07:38:56.150Z,903.00
2023-03-31T07:39:55.618Z,1003.00
2023-03-31T07:41:07.787Z,964.00
2023-03-31T07:41:56.665Z,967.00
2023-03-31T07:42:55.738Z,1008.00
2023-03-31T07:43:55.763Z,967.00
2023-03-31T07:44:55.794Z,939.00
2023-03-31T07:45:55.863Z,896.00
2023-03-31T07:46:55.889Z,880.00
2023-03-31T07:47:55.886Z,898.00
2023-03-31T07:48:55.871Z,889.00
2023-03-31T07:49:55.892Z,881.00
2023-03-31T07:50:55.916Z,884.00
2023-03-31T07:51:55.909Z,960.00
2023-03-31T07:52:55.972Z,1033.00
2023-03-31T07:53:55.894Z,1054.00
2023-03-31T07:54:55.954Z,1064.00
2023-03-31T07:55:55.914Z,1078.00
2023-03-31T07:56:56.001Z,1094.00
2023-03-31T07:57:55.922Z,1121.00
2023-03-31T07:58:57.688Z,1155.00
2023-03-31T07:59:56.012Z,1165.00
2023-03-31T08:00:56.044Z,1176.00
2023-03-31T08:01:56.178Z,1184.00
2023-03-31T08:02:56.163Z,1204.00
2023-03-31T08:03:56.373Z,1238.00
2023-03-31T08:04:56.279Z,1247.00
2023-03-31T08:05:56.289Z,1251.00
2023-03-31T08:06:56.379Z,1258.00
2023-03-31T08:07:56.382Z,1276.00
2023-03-31T08:08:56.636Z,1282.00
2023-03-31T08:09:56.453Z,1279.00
2023-03-31T08:10:56.469Z,1278.00
2023-03-31T08:11:56.461Z,1280.00
2023-03-31T08:12:56.514Z,1284.00
2023-03-31T08:13:56.534Z,1320.00
2023-03-31T08:14:56.534Z,1331.00
2023-03-31T08:15:56.553Z,1330.00
2023-03-31T08:16:56.540Z,1328.00
2023-03-31T08:17:56.651Z,1329.00
2023-03-31T08:18:56.621Z,1325.00
2023-03-31T08:19:56.660Z,1318.00
2023-03-31T08:20:56.695Z,1318.00
2023-03-31T08:21:57.187Z,1336.00
2023-03-31T08:22:56.693Z,1213.00
2023-03-31T08:23:56.772Z,1084.00
2023-03-31T08:24:56.792Z,981.00
2023-03-31T08:25:56.827Z,864.00
2023-03-31T08:26:57.139Z,843.00
2023-03-31T08:27:57.640Z,823.00
2023-03-31T08:28:57.008Z,812.00
2023-03-31T08:29:57.036Z,803.00
2023-03-31T08:30:57.128Z,804.00
2023-03-31T08:31:57.268Z,798.00
2023-03-31T08:32:57.256Z,789.00
2023-03-31T08:33:57.250Z,794.00
2023-03-31T08:34:57.397Z,786.00
2023-03-31T08:35:57.429Z,847.00
2023-03-31T08:36:57.641Z,880.00
2023-03-31T08:37:57.516Z,862.00
2023-03-31T08:38:57.574Z,829.00
2023-03-31T08:39:58.184Z,773.00
2023-03-31T08:40:57.722Z,779.00
2023-03-31T08:41:57.703Z,782.00
2023-03-31T08:42:57.746Z,778.00
2023-03-31T08:43:57.791Z,781.00
2023-03-31T08:44:57.847Z,763.00
2023-03-31T08:45:57.940Z,688.00
2023-03-31T08:46:57.965Z,674.00
2023-03-31T08:47:58.076Z,646.00
2023-03-31T08:48:58.002Z,625.00
2023-03-31T08:49:58.003Z,612.00
2023-03-31T08:50:58.033Z,580.00
2023-03-31T08:51:58.684Z,582.00
2023-03-31T08:52:58.119Z,568.00
2023-03-31T08:53:58.113Z,562.00
2023-03-31T08:54:58.185Z,560.00
2023-03-31T08:55:58.250Z,553.00
2023-03-31T08:56:58.372Z,550.00
2023-03-31T08:57:58.326Z,546.00
2023-03-31T08:58:58.388Z,544.00
2023-03-31T08:59:58.668Z,540.00
2023-03-31T09:00:58.460Z,530.00
2023-03-31T09:01:58.534Z,530.00
2023-03-31T09:02:58.585Z,531.00
2023-03-31T09:03:58.696Z,536.00
2023-03-31T09:04:58.596Z,571.00
2023-03-31T09:06:01.006Z,573.00
2023-03-31T09:06:58.795Z,582.00
2023-03-31T09:07:59.155Z,591.00
2023-03-31T09:08:58.879Z,591.00
2023-03-31T09:09:59.152Z,586.00
2023-03-31T09:10:58.918Z,586.00
2023-03-31T09:11:58.985Z,606.00
2023-03-31T09:12:59.228Z,620.00
2023-03-31T09:13:58.964Z,631.00
2023-03-31T09:14:59.012Z,638.00
2023-03-31T09:15:59.053Z,665.00
2023-03-31T09:16:59.171Z,679.00
2023-03-31T09:17:59.220Z,669.00
2023-03-31T09:18:59.224Z,666.00
2023-03-31T09:19:59.289Z,673.00
2023-03-31T09:20:59.314Z,655.00
2023-03-31T09:21:59.354Z,647.00
2023-03-31T09:22:59.433Z,630.00
2023-03-31T09:23:59.469Z,616.00
2023-03-31T09:24:59.529Z,599.00
2023-03-31T09:25:59.635Z,652.00
2023-03-31T09:26:59.657Z,712.00
2023-03-31T09:27:59.676Z,687.00
2023-03-31T09:28:59.708Z,744.00
2023-03-31T09:29:59.773Z,822.00
2023-03-31T09:30:59.816Z,870.00
2023-03-31T09:31:59.947Z,861.00
2023-03-31T09:32:59.972Z,864.00
2023-03-31T09:33:59.933Z,865.00
2023-03-31T09:35:00.195Z,921.00
2023-03-31T09:35:59.997Z,965.00
2023-03-31T09:37:00.027Z,979.00
2023-03-31T09:38:00.025Z,985.00
2023-03-31T09:38:59.987Z,1048.00
2023-03-31T09:40:00.226Z,1027.00
2023-03-31T09:40:59.992Z,1022.00
2023-03-31T09:42:00.037Z,1024.00
2023-03-31T09:43:00.096Z,1050.00
2023-03-31T09:44:00.111Z,1116.00
2023-03-31T09:45:00.168Z,1113.00
2023-03-31T09:47:00.308Z,1134.00
2023-03-31T09:48:00.236Z,1074.00
2023-03-31T09:49:00.193Z,1182.00
2023-03-31T09:50:00.320Z,1141.00
2023-03-31T09:51:00.163Z,1152.00
2023-03-31T09:52:00.175Z,1155.00
2023-03-31T09:53:00.182Z,1154.00
2023-03-31T09:54:00.166Z,1159.00
2023-03-31T09:55:00.247Z,1150.00
2023-03-31T09:56:00.161Z,1150.00
2023-03-31T09:57:00.229Z,1165.00
2023-03-31T09:58:00.198Z,1195.00
2023-03-31T09:59:00.186Z,1292.00
2023-03-31T10:00:00.195Z,1275.00
2023-03-31T10:01:00.161Z,1209.00
2023-03-31T10:02:00.404Z,1312.00
2023-03-31T10:03:00.244Z,1303.00
2023-03-31T10:04:00.191Z,1292.00
2023-03-31T10:05:00.202Z,1282.00
2023-03-31T10:06:00.050Z,1173.00
2023-03-31T10:07:00.094Z,1179.00
2023-03-31T10:08:00.123Z,1061.00
2023-03-31T10:09:00.031Z,1077.00
2023-03-31T10:10:00.265Z,1117.00
2023-03-31T10:11:00.197Z,1127.00
2023-03-31T10:12:00.137Z,1136.00
2023-03-31T10:13:00.016Z,1142.00
2023-03-31T10:14:00.013Z,1146.00
2023-03-31T10:15:00.009Z,1123.00
2023-03-31T10:16:00.008Z,1075.00
2023-03-31T10:17:00.003Z,1076.00
2023-03-31T10:18:00.000Z,983.00
2023-03-31T10:18:59.975Z,991.00
2023-03-31T10:19:59.973Z,907.00
2023-03-31T10:20:59.961Z,911.00
2023-03-31T10:21:59.964Z,912.00
2023-03-31T10:22:59.999Z,1043.00
2023-03-31T10:24:00.070Z,1058.00
2023-03-31T10:25:00.215Z,1081.00
2023-03-31T10:26:00.168Z,1077.00
2023-03-31T10:27:00.190Z,1067.00
2023-03-31T10:28:00.230Z,1096.00
2023-03-31T10:29:00.281Z,1172.00
2023-03-31T10:30:00.538Z,1193.00
2023-03-31T10:31:00.773Z,1209.00
2023-03-31T10:32:00.628Z,1226.00
2023-03-31T10:33:08.456Z,1236.00
2023-03-31T10:34:01.663Z,1240.00
2023-03-31T10:35:00.656Z,1243.00
2023-03-31T10:36:00.732Z,1237.00
2023-03-31T10:37:00.641Z,1154.00
2023-03-31T10:38:00.634Z,1167.00
2023-03-31T10:39:00.617Z,1153.00
2023-03-31T10:40:00.651Z,1151.00
2023-03-31T10:41:00.809Z,1137.00
2023-03-31T10:42:00.597Z,1132.00
2023-03-31T10:43:00.643Z,1074.00
2023-03-31T10:44:00.683Z,1061.00
2023-03-31T10:45:00.758Z,1046.00
2023-03-31T10:46:00.828Z,1041.00
2023-03-31T10:47:00.979Z,1037.00
2023-03-31T10:48:00.965Z,1040.00
2023-03-31T10:49:01.049Z,1036.00
2023-03-31T10:50:01.046Z,1042.00
2023-03-31T10:51:01.192Z,1044.00
2023-03-31T10:52:01.118Z,1045.00
2023-03-31T10:53:01.170Z,1038.00
2023-03-31T10:54:01.199Z,1037.00
2023-03-31T10:55:01.264Z,1032.00
2023-03-31T10:56:01.713Z,1031.00
2023-03-31T10:57:01.332Z,1021.00
2023-03-31T10:58:01.354Z,994.00
2023-03-31T10:59:05.928Z,996.00
2023-03-31T11:00:02.402Z,965.00
2023-03-31T11:01:01.692Z,954.00
2023-03-31T11:02:01.437Z,952.00
2023-03-31T11:03:01.464Z,948.00
2023-03-31T11:04:01.469Z,935.00
2023-03-31T11:05:01.402Z,938.00
2023-03-31T11:06:01.708Z,934.00
2023-03-31T11:07:01.423Z,937.00
2023-03-31T11:08:01.438Z,934.00
2023-03-31T11:09:01.415Z,940.00
2023-03-31T11:10:01.429Z,962.00
2023-03-31T11:11:01.759Z,967.00
2023-03-31T11:12:01.531Z,972.00
2023-03-31T11:13:01.559Z,990.00
2023-03-31T11:14:01.579Z,984.00
2023-03-31T11:15:01.623Z,982.00
2023-03-31T11:16:01.658Z,972.00
2023-03-31T11:17:01.657Z,928.00
2023-03-31T11:18:01.699Z,858.00
2023-03-31T11:19:01.652Z,779.00
2023-03-31T11:20:01.681Z,751.00
2023-03-31T11:21:01.684Z,747.00
2023-03-31T11:22:01.670Z,710.00
2023-03-31T11:23:01.713Z,715.00
2023-03-31T11:24:01.681Z,717.00
2023-03-31T11:25:01.696Z,724.00
2023-03-31T11:26:01.692Z,721.00
2023-03-31T11:27:01.719Z,713.00
2023-03-31T11:28:01.727Z,717.00
2023-03-31T11:29:01.766Z,720.00
2023-03-31T11:30:01.766Z,721.00
2023-03-31T11:31:01.776Z,722.00
2023-03-31T11:32:01.877Z,721.00
2023-03-31T11:33:01.860Z,720.00
2023-03-31T11:34:01.843Z,713.00
2023-03-31T11:35:01.864Z,705.00
2023-03-31T11:36:01.931Z,699.00
2023-03-31T11:37:01.916Z,694.00
2023-03-31T11:38:01.951Z,687.00
2023-03-31T11:39:01.961Z,676.00
2023-03-31T11:40:02.018Z,664.00
2023-03-31T11:41:02.030Z,659.00
2023-03-31T11:42:02.105Z,654.00
2023-03-31T11:43:02.137Z,652.00
2023-03-31T11:44:02.168Z,646.00
2023-03-31T11:45:02.188Z,639.00
2023-03-31T11:46:02.323Z,632.00
2023-03-31T11:47:02.294Z,630.00
2023-03-31T11:48:02.544Z,626.00
2023-03-31T11:49:02.381Z,621.00
2023-03-31T11:50:02.421Z,616.00
2023-03-31T11:51:02.500Z,614.00
2023-03-31T11:52:02.525Z,608.00
2023-03-31T11:53:02.562Z,604.00
2023-03-31T11:54:02.585Z,599.00
2023-03-31T11:55:03.415Z,593.00
2023-03-31T11:56:02.714Z,592.00
2023-03-31T11:57:02.800Z,588.00
2023-03-31T11:58:02.796Z,585.00
2023-03-31T11:59:02.834Z,581.00
2023-03-31T12:00:02.878Z,575.00
2023-03-31T12:01:03.629Z,568.00
2023-03-31T12:02:03.247Z,563.00
2023-03-31T12:03:03.093Z,563.00
2023-03-31T12:04:03.121Z,561.00
2023-03-31T12:05:03.091Z,562.00
2023-03-31T12:06:03.271Z,560.00
2023-03-31T12:07:03.242Z,557.00
2023-03-31T12:08:03.284Z,556.00
2023-03-31T12:09:03.335Z,554.00
2023-03-31T12:10:03.386Z,551.00
2023-03-31T12:11:03.422Z,546.00
2023-03-31T12:12:03.453Z,544.00
2023-03-31T12:13:03.537Z,546.00
2023-03-31T12:14:03.483Z,546.00
2023-03-31T12:15:03.550Z,543.00
2023-03-31T12:16:03.664Z,538.00
2023-03-31T12:17:03.584Z,534.00
2023-03-31T12:18:03.656Z,531.00
2023-03-31T12:19:03.599Z,528.00
2023-03-31T12:20:03.599Z,524.00
2023-03-31T12:21:03.596Z,522.00
2023-03-31T12:22:03.636Z,520.00
2023-03-31T12:23:03.756Z,519.00
2023-03-31T12:24:04.711Z,516.00
2023-03-31T12:25:03.886Z,514.00